Time;durP1;ratioP1;P1;durP2;ratioP2;P2;SDS_P1;SDS_P2;PMS_P1;PMS_P2;Temp;Humidity;BMP_temperature;BMP_pressure;BME280_temperature;BME280_humidity;BME280_pressure;Samples;Min_cycle;Max_cycle;Signal;HPM_P1;HPM_P2
2022/08/10 00:04:00;;;;;;;1.50;0.90;;;;;;;18.57;89.90;99305.31;15287374;19;20022;-63
2022/08/10 00:09:06;;;;;;;2.13;0.90;;;;;;;18.42;92.17;99308.06;15289698;19;20015;-60
2022/08/10 00:14:11;;;;;;;2.45;0.82;;;;;;;18.32;93.57;99304.78;15288301;19;20015;-60
2022/08/10 00:19:18;;;;;;;3.47;1.00;;;;;;;18.22;95.43;99298.78;15286899;19;20010;-58
2022/08/10 00:24:23;;;;;;;4.40;1.00;;;;;;;18.10;97.46;99306.59;15275986;19;20472;-62
2022/08/10 00:29:28;;;;;;;1.40;0.90;;;;;;;17.99;98.93;99299.72;15287521;19;20018;-58
2022/08/10 00:34:36;;;;;;;2.85;0.98;;;;;;;17.86;100.00;99300.34;15285600;19;20067;-60
2022/08/10 00:39:41;;;;;;;3.63;1.10;;;;;;;17.73;100.00;99295.53;15285886;19;20010;-59
2022/08/10 00:44:49;;;;;;;1.42;0.82;;;;;;;17.62;100.00;99293.28;15285992;19;20018;-58
2022/08/10 00:49:57;;;;;;;1.92;0.90;;;;;;;17.51;100.00;99289.97;15287905;19;20015;-57
2022/08/10 00:55:03;;;;;;;1.95;0.98;;;;;;;17.46;100.00;99297.88;15274258;19;20015;-60
2022/08/10 01:00:10;;;;;;;3.67;1.00;;;;;;;17.40;100.00;99302.16;15285838;19;20475;-59
2022/08/10 01:05:18;;;;;;;2.22;0.98;;;;;;;17.33;100.00;99294.91;15284755;19;20576;-60
2022/08/10 01:10:35;;;;;;;1.38;1.00;;;;;;;17.24;100.00;99297.69;15284430;19;20463;-62
2022/08/10 01:15:54;;;;;;;1.33;0.90;;;;;;;17.15;100.00;99293.34;15284720;19;20038;-61
2022/08/10 01:21:26;;;;;;;2.97;1.10;;;;;;;17.06;100.00;99294.44;15285373;19;20011;-61
2022/08/10 01:27:08;;;;;;;3.58;1.20;;;;;;;16.94;100.00;99297.59;15286461;19;20014;-59
2022/08/10 01:32:16;;;;;;;;;;;;;;;16.82;100.00;99292.72;15280303;19;20007;-59
2022/08/10 01:37:25;;;;;;;3.10;1.00;;;;;;;16.70;100.00;99284.94;15281624;19;19918;-60
2022/08/10 01:42:34;;;;;;;3.20;1.20;;;;;;;16.61;100.00;99297.78;15283827;19;20528;-61
2022/08/10 01:53:06;;;;;;;2.55;1.00;;;;;;;16.37;100.00;99304.19;15288592;19;20479;-63
2022/08/10 01:58:13;;;;;;;2.92;1.17;;;;;;;16.22;100.00;99295.94;15300412;19;20007;-58
2022/08/10 02:03:24;;;;;;;4.78;1.33;;;;;;;16.16;100.00;99302.09;15284145;19;20007;-58
2022/08/10 02:08:32;;;;;;;1.50;1.00;;;;;;;16.04;100.00;99301.59;15296333;19;20062;-64
2022/08/10 02:19:26;;;;;;;2.53;1.10;;;;;;;15.90;100.00;99305.03;15293273;19;19983;-64
2022/08/10 02:24:32;;;;;;;3.85;1.20;;;;;;;15.83;100.00;99305.72;15291459;19;20050;-60
2022/08/10 02:29:38;;;;;;;2.65;1.10;;;;;;;15.78;100.00;99301.81;15292157;19;20450;-60
2022/08/10 02:34:50;;;;;;;3.90;1.30;;;;;;;15.72;100.00;99296.03;15281186;19;20467;-58
2022/08/10 02:39:55;;;;;;;4.43;1.27;;;;;;;15.65;100.00;99297.78;15294335;19;20014;-61
2022/08/10 02:45:07;;;;;;;2.25;1.20;;;;;;;15.56;100.00;99304.25;15287224;19;20035;-61
2022/08/10 02:50:37;;;;;;;2.17;1.10;;;;;;;15.48;100.00;99298.78;15291263;19;20010;-60
2022/08/10 02:55:47;;;;;;;1.50;1.15;;;;;;;15.32;100.00;99300.53;15287851;19;20361;-58
2022/08/10 03:00:57;;;;;;;2.60;1.25;;;;;;;15.21;100.00;99299.00;15290810;19;20353;-60
2022/08/10 03:06:10;;;;;;;3.92;1.13;;;;;;;15.10;100.00;99297.47;15283193;19;20018;-60
2022/08/10 03:11:23;;;;;;;5.03;1.30;;;;;;;15.05;100.00;99299.84;15294418;19;20006;-57
2022/08/10 03:16:56;;;;;;;2.60;1.08;;;;;;;15.00;100.00;99304.06;15293052;19;20040;-60
2022/08/10 03:22:04;;;;;;;2.35;1.40;;;;;;;14.92;100.00;99308.50;15291235;19;20018;-54
2022/08/10 03:27:10;;;;;;;2.67;1.30;;;;;;;14.86;100.00;99306.44;15295439;19;20382;-61
2022/08/10 03:32:15;;;;;;;1.42;1.30;;;;;;;14.82;100.00;99312.38;15291802;19;20372;-60
2022/08/10 03:37:23;;;;;;;2.20;1.05;;;;;;;14.72;100.00;99320.63;15279931;19;20035;-58
2022/08/10 03:42:30;;;;;;;2.33;1.17;;;;;;;14.62;100.00;99318.06;15289502;19;20494;-60
2022/08/10 03:47:38;;;;;;;3.28;1.45;;;;;;;14.58;100.00;99322.09;15292042;19;20034;-58
2022/08/10 03:52:46;;;;;;;2.78;1.17;;;;;;;14.56;100.00;99324.13;15288607;19;20018;-60
2022/08/10 03:57:52;;;;;;;2.75;1.20;;;;;;;14.55;100.00;99327.84;15289870;19;20010;-56
2022/08/10 04:02:59;;;;;;;1.45;1.30;;;;;;;14.54;100.00;99326.16;15286242;19;20014;-62
2022/08/10 04:08:07;;;;;;;4.03;1.30;;;;;;;14.54;100.00;99326.16;15286136;19;20043;-57
2022/08/10 04:13:12;;;;;;;4.53;1.40;;;;;;;14.54;100.00;99337.88;15284745;19;20017;-61
2022/08/10 04:18:17;;;;;;;3.85;1.20;;;;;;;14.57;100.00;99331.25;15285199;19;20490;-63
2022/08/10 04:23:26;;;;;;;2.88;1.20;;;;;;;14.58;100.00;99344.63;15286649;19;20021;-60
2022/08/10 04:28:32;;;;;;;2.13;1.20;;;;;;;14.58;100.00;99344.63;15289526;19;20018;-59
2022/08/10 04:33:42;;;;;;;5.25;1.10;;;;;;;14.61;100.00;99343.47;15287039;19;20018;-59
2022/08/10 04:38:51;;;;;;;2.67;1.30;;;;;;;14.65;100.00;99336.69;15288823;19;20069;-61
2022/08/10 04:43:56;;;;;;;4.72;1.33;;;;;;;14.66;100.00;99346.53;15275314;19;20018;-59
2022/08/10 04:49:01;;;;;;;4.97;1.30;;;;;;;14.66;100.00;99346.53;15283619;19;20380;-59
2022/08/10 04:54:10;;;;;;;3.63;1.40;;;;;;;14.67;100.00;99347.41;15290722;19;20017;-84
2022/08/10 04:59:19;;;;;;;3.97;1.30;;;;;;;14.65;100.00;99344.81;15299042;19;20010;-81
2022/08/10 05:04:28;;;;;;;2.50;1.30;;;;;;;14.64;100.00;99351.28;15318407;19;20029;-83
2022/08/10 05:09:45;;;;;;;3.70;1.30;;;;;;;14.66;100.00;99351.13;15303463;19;20034;-82
2022/08/10 05:15:12;;;;;;;2.08;1.20;;;;;;;14.68;100.00;99349.97;15295665;19;20038;-82
2022/08/10 05:20:17;;;;;;;2.53;1.50;;;;;;;14.74;100.00;99356.59;15304936;19;20030;-82
2022/08/10 05:25:26;;;;;;;2.55;1.30;;;;;;;14.78;100.00;99353.38;15310969;19;20038;-82
2022/08/10 05:30:32;;;;;;;2.90;1.58;;;;;;;14.88;100.00;99352.38;15321274;19;20011;-83
2022/08/10 05:35:39;;;;;;;4.57;1.30;;;;;;;14.96;100.00;99363.28;15323968;19;20015;-82
2022/08/10 05:41:07;;;;;;;2.70;1.30;;;;;;;15.05;100.00;99366.84;15318146;19;20018;-82
2022/08/10 05:46:12;;;;;;;3.83;1.50;;;;;;;15.15;100.00;99361.25;15318116;19;20038;-82
2022/08/10 05:51:28;;;;;;;3.95;1.40;;;;;;;15.22;100.00;99365.00;15335678;19;20007;-86
2022/08/10 05:56:41;;;;;;;3.45;1.50;;;;;;;15.31;100.00;99361.28;15369238;19;20014;-84
2022/08/10 06:02:06;;;;;;;3.08;1.73;;;;;;;15.42;100.00;99373.66;15325993;19;20031;-83
2022/08/10 06:07:33;;;;;;;4.85;1.33;;;;;;;15.54;100.00;99377.72;15321394;19;20007;-84
2022/08/10 06:12:42;;;;;;;4.30;1.52;;;;;;;15.67;100.00;99374.50;15315398;19;20486;-82
2022/08/10 06:18:01;;;;;;;3.45;1.40;;;;;;;15.81;100.00;99377.56;15302975;19;20467;-84
2022/08/10 06:23:08;;;;;;;3.75;1.33;;;;;;;15.94;100.00;99382.50;15205438;19;20031;-85
2022/08/10 06:28:18;;;;;;;4.82;1.40;;;;;;;16.06;100.00;99388.41;15308318;19;20025;-83
2022/08/10 06:33:25;;;;;;;3.78;1.63;;;;;;;16.22;100.00;99390.25;15309088;19;20771;-84
2022/08/10 06:38:33;;;;;;;7.13;1.50;;;;;;;16.36;100.00;99380.50;15306099;19;20018;-81
2022/08/10 06:43:46;;;;;;;2.95;1.40;;;;;;;16.56;100.00;99387.22;15307090;19;20395;-84
2022/08/10 06:48:54;;;;;;;1.70;1.13;;;;;;;16.77;100.00;99389.34;15302326;19;20015;-84
2022/08/10 06:54:03;;;;;;;3.47;1.30;;;;;;;17.04;100.00;99389.06;15299339;19;20010;-85
2022/08/10 06:59:18;;;;;;;3.45;1.23;;;;;;;17.36;100.00;99388.00;15298919;19;20054;-83
2022/08/10 07:04:29;;;;;;;2.83;1.10;;;;;;;17.62;100.00;99384.06;15308723;19;20078;-83
2022/08/10 07:09:39;;;;;;;1.73;1.13;;;;;;;17.89;100.00;99383.63;15306037;19;20009;-85
2022/08/10 07:14:49;;;;;;;4.70;1.10;;;;;;;18.15;100.00;99383.22;15307337;19;20039;-83
2022/08/10 07:19:59;;;;;;;3.70;1.27;;;;;;;18.40;100.00;99383.81;15301151;19;20777;-85
2022/08/10 07:25:07;;;;;;;6.32;1.30;;;;;;;18.63;100.00;99382.84;15297635;19;20050;-84
2022/08/10 07:30:16;;;;;;;3.17;1.13;;;;;;;18.82;100.00;99383.28;15301041;19;20051;-84
2022/08/10 07:35:23;;;;;;;2.25;0.98;;;;;;;19.02;100.00;99387.13;15307855;19;20340;-84
2022/08/10 07:40:28;;;;;;;5.47;1.17;;;;;;;19.30;100.00;99380.06;15301914;19;20030;-86
2022/08/10 07:45:39;;;;;;;2.47;1.10;;;;;;;19.52;100.00;99391.84;15308765;19;20011;-85
2022/08/10 07:50:45;;;;;;;2.10;1.10;;;;;;;19.69;100.00;99381.47;15303697;19;20006;-85
2022/08/10 07:55:52;;;;;;;6.32;1.30;;;;;;;19.85;100.00;99385.81;15295512;19;20014;-87
2022/08/10 08:01:21;;;;;;;4.70;1.17;;;;;;;20.02;100.00;99380.91;15301334;19;20472;-84
2022/08/10 08:06:27;;;;;;;4.07;1.23;;;;;;;20.21;100.00;99390.31;15306133;19;20725;-84
2022/08/10 08:11:35;;;;;;;4.13;1.20;;;;;;;20.41;100.00;99378.63;15301378;19;20356;-85
2022/08/10 08:16:47;;;;;;;3.78;1.10;;;;;;;20.62;100.00;99385.91;15303662;19;20010;-84
2022/08/10 08:21:53;;;;;;;5.10;1.23;;;;;;;20.87;100.00;99383.53;15303363;19;20039;-82
2022/08/10 08:27:19;;;;;;;8.10;1.40;;;;;;;21.02;100.00;99379.78;15296348;19;20393;-83
2022/08/10 08:32:29;;;;;;;3.13;1.23;;;;;;;21.17;100.00;99396.91;15304244;19;20003;-83
2022/08/10 08:37:36;;;;;;;5.63;1.27;;;;;;;21.32;100.00;99390.41;15298992;19;20356;-79
2022/08/10 08:43:30;;;;;;;4.47;1.30;;;;;;;21.48;99.08;99384.50;15303026;19;20022;-84
2022/08/10 08:48:56;;;;;;;4.80;1.33;;;;;;;21.66;97.45;99380.34;15305740;19;20046;-83
2022/08/10 08:54:16;;;;;;;10.20;1.60;;;;;;;21.91;93.40;99374.22;15302270;19;20010;-83
2022/08/10 08:59:37;;;;;;;6.67;1.40;;;;;;;22.14;88.33;99374.63;15289243;19;20037;-82
2022/08/10 09:05:02;;;;;;;6.47;1.20;;;;;;;22.39;86.31;99365.69;15296388;19;20361;-83
2022/08/10 09:10:20;;;;;;;3.58;1.20;;;;;;;22.56;82.50;99374.34;15332997;19;20007;-80
2022/08/10 09:15:34;;;;;;;8.27;1.15;;;;;;;22.73;80.75;99369.22;15339545;19;20140;-82
2022/08/10 09:20:51;;;;;;;9.93;1.17;;;;;;;22.81;75.46;99361.75;15294028;19;20776;-83
2022/08/10 09:26:03;;;;;;;7.05;1.10;;;;;;;23.01;75.88;99359.75;15295021;19;20475;-81
2022/08/10 09:31:10;;;;;;;4.32;0.82;;;;;;;23.17;74.00;99363.06;15287672;19;20010;-82
2022/08/10 09:36:38;;;;;;;2.83;1.00;;;;;;;23.37;68.60;99357.47;15295197;19;20053;-82
2022/08/10 09:41:56;;;;;;;6.18;0.90;;;;;;;23.55;65.64;99351.19;15289952;19;20022;-83
2022/08/10 09:47:15;;;;;;;6.95;1.02;;;;;;;23.74;62.05;99348.50;15298415;19;20014;-81
2022/08/10 09:52:31;;;;;;;5.25;1.20;;;;;;;23.98;61.71;99342.16;15297668;19;20021;-82
2022/08/10 09:57:43;;;;;;;3.70;0.90;;;;;;;24.05;62.22;99330.25;15295283;19;20014;-85
2022/08/10 10:03:03;;;;;;;2.47;0.90;;;;;;;24.29;57.93;99329.34;15293147;19;20073;-81
2022/08/10 10:08:25;;;;;;;8.80;1.20;;;;;;;24.42;56.48;99316.47;15304946;19;20011;-81
2022/08/10 10:13:40;;;;;;;5.32;1.10;;;;;;;24.54;56.99;99314.63;15301238;19;20503;-81
2022/08/10 10:19:16;;;;;;;4.30;0.90;;;;;;;24.67;54.29;99310.03;15307368;19;20185;-83
2022/08/10 10:24:38;;;;;;;4.40;0.77;;;;;;;24.92;51.99;99310.78;15311741;19;20348;-81
2022/08/10 10:29:49;;;;;;;4.03;1.02;;;;;;;25.17;53.82;99298.75;15309049;19;20717;-83
2022/08/10 10:35:07;;;;;;;7.18;1.08;;;;;;;25.34;52.74;99292.56;15307338;19;20479;-82
2022/08/10 10:40:17;;;;;;;3.63;0.98;;;;;;;25.53;50.70;99280.38;15297652;19;20010;-82
2022/08/10 10:45:30;;;;;;;5.07;1.00;;;;;;;25.56;50.48;99279.06;15310199;19;20006;-81
2022/08/10 10:50:42;;;;;;;2.47;0.88;;;;;;;25.83;48.32;99270.28;15302088;19;20015;-62
2022/08/10 10:55:58;;;;;;;4.00;0.80;;;;;;;26.06;47.34;99277.69;15298187;19;20014;-62
2022/08/10 11:01:30;;;;;;;3.13;1.10;;;;;;;26.18;46.69;99279.63;15299384;19;20010;-61
2022/08/10 11:06:50;;;;;;;4.10;0.95;;;;;;;26.33;46.10;99268.09;15300070;19;20471;-63
2022/08/10 11:12:02;;;;;;;1.80;0.82;;;;;;;26.22;45.77;99272.56;15294979;19;20015;-61
2022/08/10 11:17:16;;;;;;;4.80;0.93;;;;;;;26.32;45.85;99266.41;15299373;19;20468;-63
2022/08/10 11:22:28;;;;;;;2.58;0.80;;;;;;;26.38;46.19;99266.28;15297243;19;20030;-62
2022/08/10 11:27:49;;;;;;;4.93;1.00;;;;;;;26.41;43.70;99263.00;15301622;19;20027;-63
2022/08/10 11:33:09;;;;;;;5.22;1.00;;;;;;;26.40;44.18;99260.50;15298970;19;20035;-63
2022/08/10 11:38:23;;;;;;;5.50;0.88;;;;;;;26.57;43.11;99261.41;15299225;19;20571;-63
2022/08/10 11:43:53;;;;;;;3.42;1.00;;;;;;;26.66;41.94;99264.59;15290890;19;20047;-61
2022/08/10 11:49:05;;;;;;;3.22;0.82;;;;;;;26.60;42.70;99254.53;15298233;19;20483;-63
2022/08/10 11:54:16;;;;;;;3.67;0.80;;;;;;;26.87;43.21;99256.75;15293653;19;20043;-60
2022/08/10 12:04:50;;;;;;;1.52;0.80;;;;;;;27.38;39.97;99252.06;15295306;19;20468;-61
2022/08/10 12:09:56;;;;;;;3.60;0.82;;;;;;;27.31;39.96;99250.56;15298494;19;20479;-61
2022/08/10 12:15:24;;;;;;;1.38;0.80;;;;;;;27.29;38.63;99237.00;15284363;19;20018;-61
2022/08/10 12:20:34;;;;;;;4.90;0.90;;;;;;;27.48;39.46;99239.53;15294125;19;20018;-60
2022/08/10 12:25:45;;;;;;;2.47;0.70;;;;;;;27.35;40.27;99233.19;15293898;19;20099;-61
2022/08/10 12:31:07;;;;;;;5.97;0.73;;;;;;;27.18;39.72;99224.91;15295683;19;20738;-59
2022/08/10 12:36:21;;;;;;;1.98;0.80;;;;;;;27.17;39.96;99223.22;15286400;19;20019;-63
2022/08/10 12:41:31;;;;;;;4.22;0.90;;;;;;;27.57;39.25;99215.88;15294439;19;20006;-61
2022/08/10 12:47:00;;;;;;;0.90;0.60;;;;;;;27.93;38.07;99213.59;15285939;19;20009;-63
2022/08/10 12:52:21;;;;;;;3.28;0.85;;;;;;;28.48;36.95;99207.34;15292212;19;20021;-63
2022/08/10 12:57:28;;;;;;;1.85;0.80;;;;;;;28.99;37.92;99212.63;15295993;19;20034;-62
2022/08/10 13:02:39;;;;;;;3.85;0.80;;;;;;;28.83;36.13;99204.16;15292994;19;20511;-60
2022/08/10 13:09:07;;;;;;;3.63;0.70;;;;;;;28.69;37.39;99191.78;15295119;19;20046;-61
2022/08/10 13:13:35;;;;;;;4.05;0.73;;;;;;;28.71;36.50;99190.41;15290377;19;20014;-61
2022/08/10 13:18:47;;;;;;;2.90;0.70;;;;;;;28.45;36.81;99181.00;15284143;19;20017;-60
2022/08/10 13:24:00;;;;;;;2.83;0.70;;;;;;;28.26;36.98;99181.38;15290862;19;20045;-61
2022/08/10 13:29:18;;;;;;;1.88;0.65;;;;;;;28.26;36.87;99170.28;15294109;19;20082;-63
2022/08/10 13:34:34;;;;;;;4.72;0.60;;;;;;;28.76;35.21;99161.91;15291458;19;20014;-60
2022/08/10 13:39:51;;;;;;;1.63;0.70;;;;;;;29.34;35.58;99155.75;15292809;19;20007;-61
2022/08/10 13:45:10;;;;;;;2.72;0.65;;;;;;;29.64;34.75;99151.47;15293540;19;20096;-58
2022/08/10 13:50:25;;;;;;;2.13;0.68;;;;;;;29.57;34.63;99148.13;15297000;19;20472;-62
2022/08/10 13:55:43;;;;;;;5.43;0.70;;;;;;;29.01;34.44;99146.59;15303716;19;20014;-61
2022/08/10 14:01:01;;;;;;;2.00;0.60;;;;;;;28.96;35.01;99135.47;15300277;19;20555;-59
2022/08/10 14:06:14;;;;;;;3.15;0.50;;;;;;;29.50;33.54;99138.06;15303783;19;20007;-61
2022/08/10 14:11:22;;;;;;;3.45;0.63;;;;;;;29.26;33.94;99136.78;15305431;19;20021;-61
2022/08/10 14:16:29;;;;;;;1.25;0.60;;;;;;;29.16;34.06;99127.28;15307737;19;20018;-61
2022/08/10 14:21:41;;;;;;;0.75;0.60;;;;;;;29.19;33.84;99132.31;15295427;19;20035;-60
2022/08/10 14:26:48;;;;;;;1.65;0.70;;;;;;;29.06;35.02;99128.03;15305337;19;20554;-60
2022/08/10 14:31:55;;;;;;;3.53;0.70;;;;;;;28.84;35.29;99122.63;15303554;19;20015;-61
2022/08/10 14:37:11;;;;;;;3.95;0.70;;;;;;;28.63;35.18;99124.34;15303816;19;20479;-62
2022/08/10 14:42:20;;;;;;;;;;;;;;;28.44;34.47;99119.19;15300926;19;20015;-61
2022/08/10 14:47:36;;;;;;;3.58;0.73;;;;;;;28.46;34.80;99107.84;15303326;19;19922;-62
2022/08/10 14:53:08;;;;;;;3.05;0.70;;;;;;;28.47;34.88;99115.06;15294756;19;20014;-60
2022/08/10 14:58:21;;;;;;;1.73;0.70;;;;;;;28.64;34.93;99114.94;15297131;19;20394;-63
2022/08/10 15:03:30;;;;;;;2.40;0.50;;;;;;;28.84;34.69;99111.53;15298881;19;20026;-59
2022/08/10 15:09:04;;;;;;;2.85;0.60;;;;;;;29.13;34.20;99102.84;15302399;19;20074;-63
2022/08/10 15:14:17;;;;;;;1.42;0.60;;;;;;;29.86;34.07;99106.88;15297891;19;20015;-59
2022/08/10 15:19:47;;;;;;;3.85;0.70;;;;;;;30.01;33.89;99099.72;15296480;19;20013;-61
2022/08/10 15:25:14;;;;;;;2.63;0.70;;;;;;;30.53;33.00;99097.84;15290571;19;20006;-60
2022/08/10 15:30:33;;;;;;;3.47;0.70;;;;;;;30.15;33.06;99092.53;15296165;19;20554;-59
2022/08/10 15:41:02;;;;;;;1.25;0.50;;;;;;;30.18;31.60;99080.03;15295947;19;20020;-63
2022/08/10 15:46:20;;;;;;;3.20;0.70;;;;;;;30.22;32.41;99075.59;15295993;19;20007;-62
2022/08/10 15:51:40;;;;;;;2.70;0.60;;;;;;;30.52;31.39;99069.22;15294550;19;20014;-63
2022/08/10 15:57:04;;;;;;;0.93;0.50;;;;;;;30.83;31.23;99069.22;15291947;19;20543;-63
2022/08/10 16:02:14;;;;;;;1.17;0.60;;;;;;;31.07;30.93;99070.59;15289969;19;20015;-62
2022/08/10 16:07:26;;;;;;;3.35;0.50;;;;;;;31.55;30.96;99057.13;15297436;19;20013;-63
2022/08/10 16:13:00;;;;;;;1.13;0.73;;;;;;;31.69;29.77;99059.34;15291044;19;20014;-60
2022/08/10 16:18:10;;;;;;;4.18;0.70;;;;;;;31.87;30.35;99050.31;15295035;19;20014;-60
2022/08/10 16:23:24;;;;;;;4.90;0.75;;;;;;;32.20;30.44;99047.03;15289024;19;20022;-59
2022/08/10 16:28:37;;;;;;;3.50;0.80;;;;;;;32.27;29.75;99055.94;15289363;19;20010;-61
2022/08/10 16:33:43;;;;;;;4.07;0.63;;;;;;;32.25;30.25;99047.88;15285073;19;20433;-61
2022/08/10 16:39:00;;;;;;;1.60;0.60;;;;;;;32.00;30.34;99045.22;15292545;19;20467;-61
2022/08/10 16:44:11;;;;;;;3.20;0.60;;;;;;;31.67;31.11;99043.72;15290655;19;20021;-61
2022/08/10 16:49:19;;;;;;;3.22;0.85;;;;;;;31.08;31.55;99048.06;15290789;19;20582;-61
2022/08/10 16:54:26;;;;;;;3.08;0.73;;;;;;;30.66;31.81;99049.25;15286723;19;20054;-61
2022/08/10 16:59:38;;;;;;;2.38;0.63;;;;;;;30.87;31.88;99047.28;15287539;19;20050;-60
2022/08/10 17:04:45;;;;;;;1.77;0.60;;;;;;;31.00;31.71;99055.03;15274965;19;20513;-61
2022/08/10 17:09:52;;;;;;;4.50;0.63;;;;;;;31.01;31.35;99059.47;15287583;19;20030;-61
2022/08/10 17:15:00;;;;;;;1.40;0.65;;;;;;;31.01;31.61;99053.91;15285938;19;20025;-61
2022/08/10 17:20:21;;;;;;;1.55;0.60;;;;;;;30.99;31.43;99052.53;15283835;19;20011;-58
2022/08/10 17:25:40;;;;;;;2.63;0.60;;;;;;;31.03;31.58;99048.09;15296187;19;20032;-59
2022/08/10 17:31:02;;;;;;;2.85;0.73;;;;;;;31.01;31.78;99050.31;15303051;19;20014;-58
2022/08/10 17:36:08;;;;;;;4.47;0.50;;;;;;;30.89;31.79;99040.31;15287994;19;20498;-61
2022/08/10 17:41:15;;;;;;;5.03;0.73;;;;;;;30.66;32.30;99050.06;15298522;19;20003;-60
2022/08/10 17:46:26;;;;;;;3.22;0.80;;;;;;;30.39;32.12;99031.72;15303474;19;20010;-57
2022/08/10 17:51:32;;;;;;;9.43;0.90;;;;;;;30.12;32.54;99038.34;15300203;19;20018;-56
2022/08/10 17:56:38;;;;;;;2.35;0.70;;;;;;;29.75;32.85;99044.91;15302466;19;20007;-52
2022/08/10 18:01:49;;;;;;;3.40;0.63;;;;;;;29.32;33.33;99042.19;15295544;19;20010;-58
2022/08/10 18:07:07;;;;;;;2.72;0.68;;;;;;;28.78;33.92;99039.66;15295274;19;20784;-59
2022/08/10 18:12:14;;;;;;;2.45;0.80;;;;;;;28.33;34.25;99048.16;15293270;19;20023;-59
2022/08/10 18:17:33;;;;;;;2.10;0.70;;;;;;;27.93;34.83;99044.66;15297735;19;20470;-62
2022/08/10 18:22:46;;;;;;;3.25;0.75;;;;;;;27.49;35.87;99051.09;15294387;19;20016;-60
2022/08/10 18:27:56;;;;;;;1.98;0.60;;;;;;;27.11;36.21;99049.19;15299407;19;20011;-63
2022/08/10 18:33:15;;;;;;;3.17;0.70;;;;;;;26.80;37.08;99055.09;15288886;19;20018;-58
2022/08/10 18:38:23;;;;;;;1.45;0.70;;;;;;;26.49;36.98;99060.06;15281052;19;20074;-61
2022/08/10 18:43:35;;;;;;;6.65;0.70;;;;;;;26.10;38.33;99058.03;15280107;19;20712;-61
2022/08/10 18:49:08;;;;;;;2.78;0.80;;;;;;;25.77;38.71;99062.34;15265248;19;20014;-60
2022/08/10 18:54:21;;;;;;;4.28;0.90;;;;;;;25.46;38.83;99064.44;15284196;19;20022;-61
2022/08/10 19:00:07;;;;;;;2.25;0.80;;;;;;;25.12;40.38;99067.00;15285159;19;20018;-64
2022/08/10 19:05:28;;;;;;;1.67;0.70;;;;;;;24.92;41.00;99064.63;15282078;19;20019;-59
2022/08/10 19:10:42;;;;;;;3.78;0.70;;;;;;;24.72;40.05;99070.50;15279130;19;20014;-61
2022/08/10 19:15:57;;;;;;;2.80;0.70;;;;;;;24.49;40.74;99072.09;15276501;19;20153;-60
2022/08/10 19:21:14;;;;;;;1.25;0.60;;;;;;;24.29;41.29;99072.41;15281792;19;20014;-60
2022/08/10 19:26:29;;;;;;;3.22;0.80;;;;;;;24.04;41.69;99075.34;15285299;19;20392;-61
2022/08/10 19:31:55;;;;;;;3.33;0.80;;;;;;;23.84;41.84;99076.41;15283058;19;20013;-64
2022/08/10 19:37:10;;;;;;;2.65;0.90;;;;;;;23.65;42.15;99079.19;15285195;19;20355;-60
2022/08/10 19:42:22;;;;;;;0.93;0.68;;;;;;;23.49;42.25;99080.66;15274425;19;20015;-57
2022/08/10 19:47:50;;;;;;;3.10;0.80;;;;;;;23.31;42.74;99077.91;15279484;19;20367;-59
2022/08/10 19:53:08;;;;;;;2.00;0.68;;;;;;;23.19;42.92;99078.66;15280734;19;20018;-59
2022/08/10 19:58:21;;;;;;;3.70;0.70;;;;;;;23.05;43.87;99072.44;15282574;19;20018;-59
2022/08/10 20:03:33;;;;;;;1.20;0.68;;;;;;;22.92;44.01;99067.06;15281865;19;20011;-61
2022/08/10 20:08:48;;;;;;;2.58;1.00;;;;;;;22.83;44.51;99073.94;15284734;19;20018;-61
2022/08/10 20:14:01;;;;;;;2.47;0.75;;;;;;;22.72;44.67;99072.75;15273494;19;20014;-59
2022/08/10 20:19:13;;;;;;;6.93;0.90;;;;;;;22.63;44.43;99077.69;15277158;19;20018;-60
2022/08/10 20:24:30;;;;;;;2.53;0.90;;;;;;;22.53;45.01;99082.81;15274628;19;20039;-57
2022/08/10 20:29:38;;;;;;;2.88;0.90;;;;;;;22.36;45.62;99082.50;15278648;19;20107;-60
2022/08/10 20:35:09;;;;;;;2.63;0.90;;;;;;;22.21;45.86;99091.91;15275126;19;20015;-61
2022/08/10 20:40:24;;;;;;;2.90;0.88;;;;;;;22.11;46.44;99086.91;15275774;19;20010;-57
2022/08/10 20:45:34;;;;;;;2.88;0.90;;;;;;;22.04;46.75;99080.63;15277693;19;20015;-59
2022/08/10 20:51:03;;;;;;;3.13;0.90;;;;;;;22.01;46.56;99078.31;15275676;19;20078;-60
2022/08/10 20:56:18;;;;;;;2.78;0.80;;;;;;;21.96;46.91;99078.13;15274517;19;20018;-61
2022/08/10 21:01:34;;;;;;;2.83;0.80;;;;;;;21.90;47.07;99079.84;15277551;19;20464;-60
2022/08/10 21:07:11;;;;;;;3.80;0.90;;;;;;;21.86;47.44;99075.88;15279288;19;20003;-61
2022/08/10 21:12:57;;;;;;;7.32;0.95;;;;;;;21.82;47.97;99069.13;15272636;19;20037;-59
2022/08/10 21:18:26;;;;;;;3.33;0.90;;;;;;;21.70;48.70;99066.22;15275499;19;20002;-60
2022/08/10 21:23:38;;;;;;;5.15;1.00;;;;;;;21.53;48.20;99065.84;15268076;19;20010;-61
2022/08/10 22:51:57;;;;;;;3.88;0.90;;;;;;;19.68;60.43;99068.13;15284222;19;20035;-68
2022/08/10 23:02:32;;;;;;;4.32;0.90;;;;;;;19.40;63.23;99061.72;15276728;19;20038;-63
2022/08/10 23:07:49;;;;;;;1.63;0.90;;;;;;;19.32;63.64;99061.91;15286743;19;20011;-64
2022/08/10 23:12:59;;;;;;;3.08;0.90;;;;;;;19.22;65.36;99065.00;15284541;19;20033;-67
2022/08/10 23:23:30;;;;;;;2.78;1.05;;;;;;;18.87;69.56;99064.13;15279890;19;20018;-66
2022/08/10 23:28:37;;;;;;;5.57;0.98;;;;;;;18.78;70.86;99055.25;15280185;19;20007;-66
2022/08/10 23:34:04;;;;;;;4.20;1.10;;;;;;;18.70;72.24;99042.59;15279578;19;20014;-65
2022/08/10 23:39:13;;;;;;;6.72;0.90;;;;;;;18.65;74.45;99053.25;15285556;19;20011;-68
2022/08/10 23:44:37;;;;;;;2.45;0.93;;;;;;;18.58;75.07;99055.09;15280112;19;20015;-67
2022/08/10 23:49:43;;;;;;;1.70;0.90;;;;;;;18.45;77.45;99043.03;15282186;19;20014;-66
2022/08/10 23:54:58;;;;;;;4.28;1.00;;;;;;;18.36;79.64;99044.22;15275951;19;20104;-65
